Dennis Port, MA

10:38 PM EST on January 29, 2015 (GMT -0500)
Chatham Municipal | Change Station
CLOSE
Current Station
Airport
Location: Chatham,
Elevation: 66 ft
Nearby Weather Stations

Elev 66 ft 41.69 °N, 69.99 °W | Updated 46 minutes ago

Mostly Cloudy
Mostly Cloudy
25 °F
Feels Like 25 °F
N
0
Wind Variable Wind from North

Today
High -- | Low -- °F
--% Chance of Precip.
Yesterday
High -- | Low -- °F
Precip. -- in
6:55 AM 4:52 PM
Waxing Gibbous, 79% visible
Pressure 30.13 in
Visibility 10.0 miles
Clouds Few 12000 ft
Dew Point 23 °F
Humidity 92%
Rainfall 0.00 in
Snow Depth Not available.
UV 0 out of 12
Pollen .10 out of 12
Air Quality Not available.
Flu Activity Not available.
METAR KCQX 300252Z AUTO 00000KT 10SM FEW120 M04/M05 A3012 RMK AO2 SLP202 T10391050 58016

More Conditions Fewer Conditions

Pressure 30.13 in
Visibility 10.0 miles
Clouds Few 12000 ft
Dew Point 23 °F
Humidity 92%
Rainfall 0.00 in
Snow Depth Not available.
UV 0 out of 12
Pollen .10 out of 12
Air Quality Not available.
Flu Activity Not available.
METAR KCQX 300252Z AUTO 00000KT 10SM FEW120 M04/M05 A3012 RMK AO2 SLP202 T10391050 58016

More Conditions Fewer Conditions

10-Day Weather Forecast

Almanac

Astronomy

Jan. 29, 2015 Rise Set
Actual Time
Civil Twilight
Nautical Twilight
Astronomical Twilight
Moon
Length of Visible Light
Length of Day
Tomorrow will be .
, % of the Moon is Illuminated

Today's Extremes

State Highs State Lows

Community

WunderPhotos

Upload Photos

1,791,705 photos uploaded!

WunderBlogs® & News

Nearby

Air Quality

  Air Quality AQ Index Pollutant
Not available.

Snow Depth

Station Depth Elevation

Earthquake Activity

City Distance Mag. Time & Date
Minimum magnitude displayed is 2.5.

Coastal Water Temperatures

Place Temperature

Nearby Weather Stations